createdAt,value
2022-10-08T00:57:43.804Z,99033.19
2022-10-08T01:00:54.743Z,99026.28
2022-10-08T01:04:07.827Z,99025.34
2022-10-08T01:07:26.509Z,99020.66
2022-10-08T01:10:48.459Z,99029.16
2022-10-08T01:14:07.440Z,99024.56
2022-10-08T01:17:27.542Z,99030.25
2022-10-08T01:20:45.430Z,99028.22
2022-10-08T01:24:16.347Z,99028.66
2022-10-08T01:27:32.395Z,99020.59
2022-10-08T01:30:52.489Z,99031.41
2022-10-08T01:34:06.153Z,99033.50
2022-10-08T01:37:21.631Z,99032.25
2022-10-08T01:40:36.639Z,99036.28
2022-10-08T01:43:54.183Z,99034.38
2022-10-08T01:47:11.710Z,99029.84
2022-10-08T01:50:27.184Z,99029.84
2022-10-08T01:53:49.440Z,99032.34
2022-10-08T01:57:04.186Z,99030.53
2022-10-08T02:00:17.182Z,99032.06
2022-10-08T02:03:33.620Z,99026.69
2022-10-08T02:06:49.381Z,99028.03
2022-10-08T02:10:06.575Z,99035.50
2022-10-08T02:13:20.319Z,99034.47
2022-10-08T02:16:43.006Z,99030.91
2022-10-08T02:19:59.786Z,99031.41
2022-10-08T02:23:14.432Z,99027.72
2022-10-08T02:26:30.891Z,99037.09
2022-10-08T02:29:47.654Z,99032.59
2022-10-08T02:33:03.148Z,99031.72
2022-10-08T02:36:18.487Z,99032.50
2022-10-08T02:39:32.323Z,99026.34
2022-10-08T02:42:50.029Z,99031.50
2022-10-08T02:46:05.230Z,99036.63
2022-10-08T02:49:20.604Z,99029.69
2022-10-08T02:52:36.965Z,99031.22
2022-10-08T02:56:00.369Z,99039.72
2022-10-08T02:59:12.138Z,99044.63
2022-10-08T03:02:29.804Z,99038.31
2022-10-08T03:05:45.259Z,99042.34
2022-10-08T03:08:59.214Z,99050.56
2022-10-08T03:12:12.565Z,99050.31
2022-10-08T03:15:23.718Z,99050.06
2022-10-08T03:18:34.456Z,99046.38
2022-10-08T03:21:48.305Z,99047.13
2022-10-08T03:24:58.465Z,99049.16
2022-10-08T03:28:08.578Z,99054.84
2022-10-08T03:31:18.731Z,99058.06
2022-10-08T03:34:36.496Z,99060.34
2022-10-08T03:37:47.832Z,99062.69
2022-10-08T03:41:01.445Z,99066.78
2022-10-08T03:44:17.398Z,99067.69
2022-10-08T03:47:29.513Z,99075.50
2022-10-08T03:50:39.552Z,99072.94
2022-10-08T03:53:53.339Z,99072.81
2022-10-08T03:57:07.233Z,99071.91
2022-10-08T04:00:20.604Z,99072.72
2022-10-08T04:03:32.051Z,99075.00
2022-10-08T04:06:42.107Z,99079.88
2022-10-08T04:09:55.541Z,99077.31
2022-10-08T04:13:09.200Z,99069.38
2022-10-08T04:16:22.397Z,99078.63
2022-10-08T04:19:35.539Z,99087.63
2022-10-08T04:22:48.400Z,99084.66
2022-10-08T04:26:03.064Z,99086.56
2022-10-08T04:29:13.733Z,99080.03
2022-10-08T04:32:26.662Z,99084.94
2022-10-08T04:35:39.938Z,99087.09
2022-10-08T04:38:51.291Z,99088.63
2022-10-08T04:42:03.344Z,99098.16
2022-10-08T04:45:22.128Z,99096.59
2022-10-08T04:48:32.684Z,99095.59
2022-10-08T04:51:45.940Z,99100.19
2022-10-08T04:54:56.431Z,99109.91
2022-10-08T04:58:10.289Z,99109.41
2022-10-08T05:01:21.348Z,99112.47
2022-10-08T05:04:34.527Z,99117.34
2022-10-08T05:07:44.913Z,99120.41
2022-10-08T05:11:02.400Z,99126.81
2022-10-08T05:14:14.216Z,99126.91
2022-10-08T05:17:24.387Z,99132.41
2022-10-08T05:20:39.651Z,99136.22
2022-10-08T05:23:55.134Z,99129.69
2022-10-08T05:27:06.782Z,99132.38
2022-10-08T05:30:21.876Z,99142.31
2022-10-08T05:33:32.198Z,99135.16
2022-10-08T05:36:42.773Z,99144.72
2022-10-08T05:39:52.873Z,99144.31
2022-10-08T05:43:09.144Z,99141.63
2022-10-08T05:46:20.806Z,99151.09
2022-10-08T05:49:33.433Z,99147.91
2022-10-08T05:52:44.133Z,99155.81
2022-10-08T05:56:01.866Z,99150.53
2022-10-08T05:59:17.101Z,99154.03
2022-10-08T06:02:28.843Z,99162.13
2022-10-08T06:05:41.894Z,99165.56
2022-10-08T06:08:54.968Z,99165.81
2022-10-08T06:12:09.897Z,99170.81
2022-10-08T06:15:19.976Z,99169.16
2022-10-08T06:18:33.151Z,99175.91
2022-10-08T06:21:43.577Z,99172.63
2022-10-08T06:24:53.688Z,99174.69
2022-10-08T06:28:06.178Z,99171.50
2022-10-08T06:31:20.026Z,99178.16
2022-10-08T06:34:37.481Z,99182.81
2022-10-08T06:37:49.005Z,99185.78
2022-10-08T06:41:01.462Z,99193.09
2022-10-08T06:44:13.399Z,99183.88
2022-10-08T06:47:23.449Z,99181.72
2022-10-08T06:50:38.257Z,99196.09
2022-10-08T06:53:55.215Z,99192.41
2022-10-08T06:57:05.426Z,99200.59
2022-10-08T07:00:23.241Z,99201.94
2022-10-08T07:03:35.473Z,99203.47
2022-10-08T07:06:46.851Z,99206.69
2022-10-08T07:09:58.975Z,99212.00
2022-10-08T07:13:09.049Z,99207.91
2022-10-08T07:16:21.792Z,99215.88
2022-10-08T07:19:31.893Z,99214.44
2022-10-08T07:23:04.302Z,99212.78
2022-10-08T07:26:23.149Z,99217.38
2022-10-08T07:29:36.699Z,99217.19
2022-10-08T07:32:53.096Z,99213.31
2022-10-08T07:36:11.546Z,99222.78
2022-10-08T07:39:23.088Z,99223.75
2022-10-08T07:42:33.160Z,99224.66
2022-10-08T07:45:51.162Z,99219.91
2022-10-08T07:49:04.731Z,99223.88
2022-10-08T07:52:14.847Z,99220.22
2022-10-08T07:55:28.863Z,99214.88
2022-10-08T07:58:39.394Z,99222.34
2022-10-08T08:01:49.827Z,99222.31
2022-10-08T08:05:00.154Z,99224.31
2022-10-08T08:08:11.208Z,99218.31
2022-10-08T08:11:24.713Z,99214.75
2022-10-08T08:14:34.754Z,99208.41
2022-10-08T08:17:46.912Z,99213.59
2022-10-08T08:21:00.643Z,99211.13
2022-10-08T08:24:12.732Z,99206.38
2022-10-08T08:27:26.830Z,99215.34
2022-10-08T08:30:37.208Z,99214.78
2022-10-08T08:33:51.065Z,99217.25
2022-10-08T08:37:01.423Z,99213.84
2022-10-08T08:40:12.073Z,99222.44
2022-10-08T08:43:23.825Z,99229.66
2022-10-08T08:46:43.171Z,99234.44
2022-10-08T08:49:55.633Z,99231.13
2022-10-08T08:53:09.407Z,99233.81
2022-10-08T08:56:25.421Z,99237.94
2022-10-08T08:59:46.735Z,99236.56
2022-10-08T09:03:01.541Z,99231.66
2022-10-08T09:06:18.247Z,99234.78
2022-10-08T09:09:34.859Z,99246.47
2022-10-08T09:12:45.597Z,99258.19
2022-10-08T09:15:57.847Z,99255.03
2022-10-08T09:19:08.171Z,99255.81
2022-10-08T09:22:25.866Z,99248.50
2022-10-08T09:25:38.441Z,99257.31
2022-10-08T09:28:52.470Z,99255.13
2022-10-08T09:32:19.445Z,99269.06
2022-10-08T09:35:37.449Z,99284.03
2022-10-08T09:38:47.664Z,99285.25
2022-10-08T09:42:13.988Z,99301.88
2022-10-08T09:45:35.445Z,99297.47
2022-10-08T09:48:48.907Z,99298.69
2022-10-08T09:52:02.890Z,99299.63
2022-10-08T09:55:33.243Z,99303.53
2022-10-08T09:58:53.441Z,99305.34
2022-10-08T10:02:07.835Z,99305.25
2022-10-08T10:05:24.217Z,99303.16
2022-10-08T10:08:48.729Z,99313.38
2022-10-08T10:12:05.000Z,99314.81
2022-10-08T10:15:21.428Z,99314.81
2022-10-08T10:18:36.980Z,99315.50
2022-10-08T10:21:58.168Z,99320.69
2022-10-08T10:25:19.280Z,99322.81
2022-10-08T10:28:39.830Z,99319.41
2022-10-08T10:31:58.175Z,99311.53
2022-10-08T10:35:16.481Z,99321.00
2022-10-08T10:38:30.665Z,99315.28
2022-10-08T10:41:49.994Z,99319.84
2022-10-08T10:45:16.111Z,99322.56
2022-10-08T10:48:26.168Z,99322.69
2022-10-08T10:51:52.095Z,99320.28
2022-10-08T10:55:22.005Z,99327.69
2022-10-08T10:58:42.554Z,99323.88
2022-10-08T11:02:01.610Z,99326.44
2022-10-08T11:05:18.377Z,99330.22
2022-10-08T11:08:39.239Z,99334.88
2022-10-08T11:12:04.561Z,99332.91
2022-10-08T11:15:24.377Z,99334.50
2022-10-08T11:18:43.601Z,99347.56
2022-10-08T11:22:00.866Z,99336.94
2022-10-08T11:25:24.757Z,99346.78
2022-10-08T11:28:47.365Z,99356.41
2022-10-08T11:31:58.360Z,99344.53
2022-10-08T11:35:22.810Z,99354.31
2022-10-08T11:38:39.966Z,99345.69
2022-10-08T11:42:02.365Z,99353.22
2022-10-08T11:45:34.259Z,99348.75
2022-10-08T11:48:46.822Z,99347.72
2022-10-08T11:52:14.909Z,99347.78
2022-10-08T11:55:29.003Z,99357.91
2022-10-08T11:58:39.234Z,99345.59
2022-10-08T12:01:56.562Z,99342.44
2022-10-08T12:05:19.254Z,99343.63
2022-10-08T12:08:53.721Z,99333.63
2022-10-08T12:12:16.913Z,99337.44
2022-10-08T12:15:51.972Z,99331.69
2022-10-08T12:19:27.868Z,99336.31
2022-10-08T12:22:45.323Z,99338.75
2022-10-08T12:26:10.302Z,99336.00
2022-10-08T12:29:51.383Z,99337.63
2022-10-08T12:33:01.591Z,99349.09
2022-10-08T12:36:21.158Z,99340.19
2022-10-08T12:39:38.291Z,99333.50
2022-10-08T12:42:54.505Z,99337.16
2022-10-08T12:46:22.041Z,99338.03
2022-10-08T12:49:36.874Z,99342.50
2022-10-08T12:52:48.486Z,99335.22
2022-10-08T12:56:00.100Z,99326.53
2022-10-08T12:59:11.980Z,99340.28
2022-10-08T13:02:27.880Z,99342.13
2022-10-08T13:05:43.296Z,99332.84
2022-10-08T13:08:56.975Z,99331.56
2022-10-08T13:12:07.147Z,99328.16
2022-10-08T13:15:25.245Z,99335.91
2022-10-08T13:18:39.524Z,99324.59
2022-10-08T13:21:56.927Z,99330.28
2022-10-08T13:25:33.593Z,99317.13
2022-10-08T13:28:59.914Z,99316.47
2022-10-08T13:32:21.068Z,99326.75
2022-10-08T13:35:34.452Z,99334.72
2022-10-08T13:38:49.110Z,99331.97
2022-10-08T13:42:03.158Z,99339.16
2022-10-08T13:45:18.175Z,99332.78
2022-10-08T13:48:28.621Z,99330.91
2022-10-08T13:51:38.702Z,99333.44
2022-10-08T13:54:51.445Z,99331.47
2022-10-08T13:58:03.469Z,99329.03
2022-10-08T14:01:14.898Z,99327.41
2022-10-08T14:04:25.021Z,99331.91
2022-10-08T14:07:37.186Z,99325.53
2022-10-08T14:10:47.463Z,99323.31
2022-10-08T14:13:59.855Z,99320.91
2022-10-08T14:17:14.258Z,99324.84
2022-10-08T14:20:25.643Z,99328.69
2022-10-08T14:23:36.445Z,99328.06
2022-10-08T14:26:46.986Z,99325.75
2022-10-08T14:29:57.160Z,99322.53
2022-10-08T14:33:11.884Z,99322.31
2022-10-08T14:36:25.257Z,99327.91
2022-10-08T14:39:35.605Z,99324.66
2022-10-08T14:42:58.028Z,99326.44
2022-10-08T14:46:08.489Z,99324.84
2022-10-08T14:49:24.116Z,99321.44
2022-10-08T14:52:35.101Z,99314.66
2022-10-08T14:56:07.850Z,99318.03
2022-10-08T14:59:16.413Z,99322.44
2022-10-08T15:02:26.532Z,99322.84
2022-10-08T15:05:37.933Z,99327.34
2022-10-08T15:08:48.014Z,99323.94
2022-10-08T15:11:58.146Z,99326.72
2022-10-08T15:15:08.898Z,99322.31
2022-10-08T15:18:19.078Z,99323.94
2022-10-08T15:21:30.498Z,99330.34
2022-10-08T15:24:40.631Z,99323.00
2022-10-08T15:27:50.647Z,99327.63
2022-10-08T15:31:03.763Z,99324.66
2022-10-08T15:35:17.668Z,99330.28
2022-10-08T15:38:31.563Z,99335.59
2022-10-08T15:41:45.611Z,99332.56
2022-10-08T15:44:58.138Z,99332.78
2022-10-08T15:48:11.396Z,99333.00
2022-10-08T15:51:21.561Z,99331.25
2022-10-08T15:54:35.801Z,99336.63
2022-10-08T15:57:45.975Z,99344.00
2022-10-08T16:00:56.068Z,99345.53
2022-10-08T16:04:06.274Z,99348.78
2022-10-08T16:07:16.929Z,99352.34
2022-10-08T16:10:28.740Z,99361.78
2022-10-08T16:13:44.503Z,99360.84
2022-10-08T16:16:57.469Z,99373.84
2022-10-08T16:20:10.919Z,99381.47
2022-10-08T16:23:20.991Z,99378.78
2022-10-08T16:26:36.080Z,99383.88
2022-10-08T16:29:46.537Z,99390.22
2022-10-08T16:32:56.926Z,99394.28
2022-10-08T16:36:10.474Z,99400.38
2022-10-08T16:39:24.364Z,99397.03
2022-10-08T16:42:35.793Z,99410.94
2022-10-08T16:45:45.929Z,99419.84
2022-10-08T16:49:00.096Z,99421.75
2022-10-08T16:52:13.602Z,99426.00
2022-10-08T16:55:23.741Z,99435.38
2022-10-08T16:58:35.206Z,99440.69
2022-10-08T17:01:46.749Z,99448.97
2022-10-08T17:04:56.899Z,99455.88
2022-10-08T17:08:07.013Z,99453.38
2022-10-08T17:11:19.217Z,99457.56
2022-10-08T17:14:33.178Z,99463.56
2022-10-08T17:17:43.307Z,99464.97
2022-10-08T17:20:55.917Z,99473.00
2022-10-08T17:24:06.342Z,99480.28
2022-10-08T17:27:16.461Z,99487.81
2022-10-08T17:30:28.090Z,99495.16
2022-10-08T17:33:38.333Z,99504.28
2022-10-08T17:36:48.430Z,99517.66
2022-10-08T17:39:58.718Z,99522.31
2022-10-08T17:43:10.708Z,99523.84
2022-10-08T17:46:24.495Z,99531.44
2022-10-08T17:49:34.818Z,99531.56
2022-10-08T17:52:45.322Z,99539.53
2022-10-08T17:56:00.277Z,99536.88
2022-10-08T17:59:13.413Z,99541.09
2022-10-08T18:02:25.291Z,99544.69
2022-10-08T18:05:35.570Z,99547.75
2022-10-08T18:08:45.742Z,99558.72
2022-10-08T18:11:55.864Z,99567.31
2022-10-08T18:15:09.721Z,99565.75
2022-10-08T18:18:21.281Z,99572.19
2022-10-08T18:21:31.415Z,99575.25
2022-10-08T18:24:41.561Z,99582.56
2022-10-08T18:27:51.720Z,99582.56
2022-10-08T18:31:05.129Z,99579.91
2022-10-08T18:34:18.865Z,99589.25
2022-10-08T18:37:31.903Z,99599.91
2022-10-08T18:40:42.080Z,99595.13
2022-10-08T18:43:52.708Z,99599.25
2022-10-08T18:47:05.350Z,99605.25
2022-10-08T18:50:20.181Z,99609.72
2022-10-08T18:53:32.292Z,99611.47
2022-10-08T18:56:42.639Z,99618.22
2022-10-08T18:59:52.816Z,99625.75
2022-10-08T19:03:04.806Z,99624.50
2022-10-08T19:06:17.150Z,99630.75
2022-10-08T19:09:30.116Z,99637.94
2022-10-08T19:12:40.274Z,99633.16
2022-10-08T19:15:50.416Z,99640.97
2022-10-08T19:19:02.690Z,99646.28
2022-10-08T19:22:14.204Z,99638.94
2022-10-08T19:25:26.588Z,99645.91
2022-10-08T19:28:38.437Z,99652.63
2022-10-08T19:31:50.799Z,99660.81
2022-10-08T19:35:01.231Z,99652.94
2022-10-08T19:38:14.827Z,99656.63
2022-10-08T19:41:29.143Z,99663.59
2022-10-08T19:44:39.204Z,99663.38
2022-10-08T19:47:51.799Z,99667.78
2022-10-08T19:51:05.444Z,99670.66
2022-10-08T19:54:18.447Z,99668.28
2022-10-08T19:57:28.653Z,99679.75
2022-10-08T20:00:43.630Z,99684.28
2022-10-08T20:03:55.841Z,99691.00
2022-10-08T20:07:06.024Z,99693.44
2022-10-08T20:10:17.523Z,99696.75
2022-10-08T20:13:27.696Z,99701.91
2022-10-08T20:16:40.546Z,99704.59
2022-10-08T20:19:50.843Z,99707.03
2022-10-08T20:23:03.328Z,99715.59
2022-10-08T20:26:20.050Z,99714.25
2022-10-08T20:29:31.260Z,99716.38
2022-10-08T20:32:41.831Z,99716.19
2022-10-08T20:35:51.868Z,99722.09
2022-10-08T20:39:08.503Z,99729.31
2022-10-08T20:42:19.958Z,99725.81
2022-10-08T20:45:30.051Z,99728.66
2022-10-08T20:48:42.606Z,99726.84
2022-10-08T20:51:55.569Z,99722.47
2022-10-08T20:55:09.726Z,99722.16
2022-10-08T20:58:21.140Z,99720.50
2022-10-08T21:01:33.011Z,99729.22
2022-10-08T21:04:43.223Z,99730.41
2022-10-08T21:07:53.414Z,99732.66
2022-10-08T21:11:04.638Z,99736.44
2022-10-08T21:14:21.555Z,99728.59
2022-10-08T21:17:31.694Z,99727.41
2022-10-08T21:20:41.760Z,99733.84
2022-10-08T21:23:52.081Z,99732.66
2022-10-08T21:27:02.124Z,99725.88
2022-10-08T21:30:14.290Z,99736.53
2022-10-08T21:33:26.915Z,99738.03
2022-10-08T21:36:41.730Z,99743.81
2022-10-08T21:39:54.560Z,99745.00
2022-10-08T21:43:04.772Z,99745.91
2022-10-08T21:46:18.557Z,99742.81
2022-10-08T21:49:31.840Z,99752.09
2022-10-08T21:52:41.891Z,99752.94
2022-10-08T21:55:56.734Z,99742.72
